Time;durP1;ratioP1;P1;durP2;ratioP2;P2;SDS_P1;SDS_P2;PMS_P1;PMS_P2;Temp;Humidity;BMP_temperature;BMP_pressure;BME280_temperature;BME280_humidity;BME280_pressure;Samples;Min_cycle;Max_cycle;Signal;HPM_P1;HPM_P2
2023/06/12 00:01:47;;;;;;;7.63;5.38;;;21.10;1.00;;;;;;5062872;28;20036;-58
2023/06/12 00:04:13;;;;;;;6.05;4.50;;;21.00;1.00;;;;;;5060758;28;20068;-58
2023/06/12 00:06:39;;;;;;;6.30;4.93;;;21.10;1.00;;;;;;5056777;28;20029;-57
2023/06/12 00:09:05;;;;;;;6.30;4.68;;;21.00;1.00;;;;;;5055821;28;20094;-58
2023/06/12 00:11:31;;;;;;;9.35;5.10;;;21.00;1.00;;;;;;5061055;28;20036;-58
2023/06/12 00:13:57;;;;;;;9.40;4.90;;;21.00;1.00;;;;;;5058530;28;20062;-58
2023/06/12 00:16:23;;;;;;;6.18;4.90;;;20.80;1.00;;;;;;5052275;28;20037;-58
2023/06/12 00:18:49;;;;;;;7.88;5.00;;;20.80;1.00;;;;;;5055382;28;20491;-58
2023/06/12 00:21:16;;;;;;;6.72;4.90;;;20.80;1.00;;;;;;5057676;28;20032;-58
2023/06/12 00:23:42;;;;;;;7.18;5.00;;;20.70;1.00;;;;;;5055149;28;20106;-57
2023/06/12 00:26:11;;;;;;;6.25;4.65;;;20.80;99.90;;;;;;5057379;28;20029;-57
2023/06/12 00:28:36;;;;;;;6.22;4.75;;;20.80;99.90;;;;;;5061686;28;20488;-57
2023/06/12 00:31:02;;;;;;;5.53;4.93;;;20.70;1.00;;;;;;5056635;28;20036;-58
2023/06/12 00:33:28;;;;;;;5.70;4.45;;;20.60;1.00;;;;;;5052228;28;20037;-57
2023/06/12 00:35:54;;;;;;;7.85;4.75;;;20.50;99.90;;;;;;5056113;28;20087;-57
2023/06/12 00:38:21;;;;;;;6.65;4.97;;;20.30;1.00;;;;;;5052833;28;20246;-57
2023/06/12 00:40:47;;;;;;;5.78;4.82;;;20.20;1.00;;;;;;5053646;28;20036;-57
2023/06/12 00:43:12;;;;;;;7.78;4.82;;;20.30;99.90;;;;;;5058265;28;20514;-57
2023/06/12 00:45:38;;;;;;;6.28;4.85;;;20.10;1.00;;;;;;5055987;28;20032;-58
2023/06/12 00:48:05;;;;;;;7.72;5.03;;;20.10;1.00;;;;;;5058558;28;20415;-57
2023/06/12 00:50:31;;;;;;;6.78;4.85;;;20.20;99.90;;;;;;5054332;28;20025;-57
2023/06/12 00:52:58;;;;;;;6.15;4.70;;;20.20;99.90;;;;;;5058213;28;20044;-57
2023/06/12 00:55:25;;;;;;;7.63;5.00;;;20.30;99.90;;;;;;5057009;28;20032;-57
2023/06/12 00:57:51;;;;;;;6.50;5.00;;;20.10;99.90;;;;;;5054947;28;20531;-57
2023/06/12 01:00:18;;;;;;;6.80;4.90;;;19.90;99.90;;;;;;5057459;28;20071;-57
2023/06/12 01:02:48;;;;;;;8.82;5.03;;;20.00;99.90;;;;;;5060970;28;20059;-57
2023/06/12 01:05:19;;;;;;;8.02;4.78;;;20.10;99.90;;;;;;5053665;28;20071;-57
2023/06/12 01:07:55;;;;;;;8.35;4.75;;;20.10;99.90;;;;;;5056323;28;20477;-57
2023/06/12 01:10:27;;;;;;;7.10;5.10;;;20.20;99.90;;;;;;5059299;28;20052;-57
2023/06/12 01:12:54;;;;;;;6.80;4.72;;;20.10;1.00;;;;;;5060116;28;20043;-57
2023/06/12 01:15:20;;;;;;;6.10;4.72;;;19.90;99.90;;;;;;5051506;28;20419;-57
2023/06/12 01:17:45;;;;;;;6.93;4.55;;;19.90;1.00;;;;;;5055179;28;20041;-57
2023/06/12 01:20:12;;;;;;;6.05;4.60;;;19.80;1.00;;;;;;5054645;28;20090;-57
2023/06/12 01:22:49;;;;;;;6.53;4.70;;;19.90;99.90;;;;;;5060173;28;20123;-57
2023/06/12 01:25:32;;;;;;;6.10;4.45;;;19.70;1.00;;;;;;5060908;28;20039;-57
2023/06/12 01:28:43;;;;;;;6.18;5.18;;;19.70;1.00;;;;;;5060069;28;20122;-56
2023/06/12 01:31:15;;;;;;;6.80;4.60;;;19.80;99.90;;;;;;5036630;28;20123;-57
2023/06/12 01:33:47;;;;;;;9.40;5.05;;;19.70;99.90;;;;;;5053940;28;20040;-57
2023/06/12 01:36:19;;;;;;;7.55;5.00;;;19.60;99.90;;;;;;5056354;28;20595;-57
2023/06/12 01:38:51;;;;;;;9.23;5.18;;;19.70;99.90;;;;;;5054526;28;20040;-57
2023/06/12 01:41:17;;;;;;;9.93;5.35;;;19.60;1.00;;;;;;5055566;28;20156;-57
2023/06/12 01:43:43;;;;;;;7.43;5.03;;;19.70;1.00;;;;;;5055809;28;20035;-57
2023/06/12 01:46:08;;;;;;;8.88;5.40;;;19.80;1.00;;;;;;5057340;28;20025;-57
2023/06/12 01:48:34;;;;;;;10.80;5.20;;;19.60;1.00;;;;;;5062449;28;20063;-58
2023/06/12 01:51:00;;;;;;;7.18;5.68;;;19.20;99.90;;;;;;5055913;28;20025;-57
2023/06/12 01:53:25;;;;;;;7.88;5.65;;;19.00;99.90;;;;;;5054033;28;20500;-57
2023/06/12 01:55:53;;;;;;;7.63;5.55;;;18.80;1.00;;;;;;5059393;28;20528;-57
2023/06/12 01:58:18;;;;;;;8.80;5.45;;;18.60;1.00;;;;;;5061373;28;20435;-57
2023/06/12 02:00:44;;;;;;;9.20;5.55;;;18.50;99.90;;;;;;5062405;28;20036;-57
2023/06/12 02:03:10;;;;;;;6.18;5.00;;;18.50;99.90;;;;;;5058771;28;20202;-58
2023/06/12 02:05:35;;;;;;;7.43;5.00;;;18.30;1.00;;;;;;5055128;28;20063;-57
2023/06/12 02:08:01;;;;;;;8.50;5.10;;;18.30;99.90;;;;;;5052836;28;20067;-57
2023/06/12 02:10:26;;;;;;;6.95;5.30;;;18.10;78.60;;;;;;5050142;28;20029;-57
2023/06/12 02:12:52;;;;;;;8.27;5.68;;;18.10;1.00;;;;;;5052009;28;20071;-57
2023/06/12 02:15:19;;;;;;;7.25;5.40;;;18.20;3.20;;;;;;5048026;28;20037;-57
2023/06/12 02:17:44;;;;;;;10.35;5.68;;;18.30;99.90;;;;;;5053617;28;20127;-57
2023/06/12 02:20:10;;;;;;;9.57;5.55;;;18.00;99.90;;;;;;5056120;28;20094;-57
2023/06/12 02:22:36;;;;;;;7.68;5.63;;;17.90;59.70;;;;;;5054039;28;20126;-57
2023/06/12 02:25:02;;;;;;;8.75;5.88;;;17.80;1.00;;;;;;5057074;28;20489;-58
2023/06/12 02:27:28;;;;;;;7.13;5.20;;;17.80;99.90;;;;;;5054062;28;20028;-57
2023/06/12 02:29:53;;;;;;;9.68;5.88;;;17.80;99.90;;;;;;5053954;28;20041;-57
2023/06/12 02:32:19;;;;;;;9.15;5.50;;;17.60;99.90;;;;;;5056383;28;20598;-57
2023/06/12 02:34:44;;;;;;;9.85;5.93;;;17.50;99.90;;;;;;5057879;28;20516;-57
2023/06/12 02:37:10;;;;;;;7.95;5.38;;;17.50;99.90;;;;;;5054172;28;20306;-57
2023/06/12 02:39:36;;;;;;;14.63;5.57;;;17.40;99.90;;;;;;5056541;28;20071;-57
2023/06/12 02:42:02;;;;;;;6.43;5.40;;;17.40;99.90;;;;;;5061556;28;20024;-59
2023/06/12 02:44:27;;;;;;;10.32;6.28;;;17.40;99.90;;;;;;5058258;28;20115;-57
2023/06/12 02:46:58;;;;;;;7.28;5.32;;;17.30;99.90;;;;;;5064174;28;20029;-57
2023/06/12 02:49:25;;;;;;;8.57;5.72;;;17.30;99.90;;;;;;5060149;28;20029;-57
2023/06/12 02:51:51;;;;;;;7.18;5.78;;;17.40;99.90;;;;;;5059571;28;20033;-57
2023/06/12 02:54:18;;;;;;;8.02;6.20;;;17.60;99.90;;;;;;5064882;28;20078;-57
2023/06/12 02:56:47;;;;;;;8.50;5.97;;;17.50;99.90;;;;;;5063634;28;20024;-57
2023/06/12 02:59:15;;;;;;;8.57;5.53;;;17.30;99.90;;;;;;5060793;28;20086;-57
2023/06/12 03:01:43;;;;;;;9.05;5.50;;;17.20;99.90;;;;;;5060165;28;20043;-56
2023/06/12 03:04:15;;;;;;;7.35;5.65;;;17.10;99.90;;;;;;5059769;28;20073;-57
2023/06/12 03:06:41;;;;;;;9.13;5.95;;;17.10;99.90;;;;;;5062893;28;20640;-56
2023/06/12 03:09:08;;;;;;;8.60;6.00;;;17.00;99.90;;;;;;5056184;28;20029;-57
2023/06/12 03:11:35;;;;;;;7.90;5.63;;;17.00;99.90;;;;;;5059631;28;20480;-57
2023/06/12 03:14:00;;;;;;;8.85;5.63;;;17.00;99.90;;;;;;5061937;28;20484;-58
2023/06/12 03:16:26;;;;;;;7.03;5.50;;;16.80;99.90;;;;;;5059460;28;20029;-57
2023/06/12 03:18:52;;;;;;;7.72;5.70;;;16.90;99.90;;;;;;5052609;28;20075;-57
2023/06/12 03:21:17;;;;;;;10.57;6.15;;;17.00;99.90;;;;;;5059929;28;20139;-56
2023/06/12 03:23:43;;;;;;;7.78;5.60;;;16.80;99.90;;;;;;5056590;28;20468;-57
2023/06/12 03:26:09;;;;;;;6.75;5.70;;;16.90;99.90;;;;;;5060723;28;20072;-57
2023/06/12 03:28:35;;;;;;;8.43;5.60;;;16.80;99.90;;;;;;5063711;28;20044;-57
2023/06/12 03:31:00;;;;;;;7.40;5.75;;;16.90;99.90;;;;;;5059286;28;20040;-56
2023/06/12 03:33:26;;;;;;;6.72;5.97;;;16.90;99.90;;;;;;5062456;28;20377;-57
2023/06/12 03:35:52;;;;;;;10.60;6.07;;;16.90;99.90;;;;;;5055092;28;20500;-57
2023/06/12 03:38:18;;;;;;;9.45;5.97;;;17.00;99.90;;;;;;5060682;28;20040;-57
2023/06/12 03:40:43;;;;;;;8.88;5.63;;;17.20;99.90;;;;;;5062537;28;20385;-57
2023/06/12 03:43:09;;;;;;;12.20;5.88;;;17.00;99.90;;;;;;5054331;28;20086;-57
2023/06/12 03:45:35;;;;;;;9.63;6.20;;;17.10;99.90;;;;;;5059417;28;20036;-57
2023/06/12 03:48:00;;;;;;;8.15;5.78;;;17.30;99.90;;;;;;5058766;28;20119;-57
2023/06/12 03:50:26;;;;;;;7.40;5.82;;;17.00;99.90;;;;;;5052117;28;20074;-57
2023/06/12 03:52:51;;;;;;;8.02;5.70;;;17.10;99.90;;;;;;5057050;28;20032;-57
2023/06/12 03:55:17;;;;;;;12.63;5.93;;;17.10;99.90;;;;;;5055523;28;20029;-57
2023/06/12 03:57:43;;;;;;;7.90;5.70;;;17.10;99.90;;;;;;5051098;28;20037;-57
2023/06/12 04:00:09;;;;;;;9.60;5.45;;;17.00;99.90;;;;;;5053685;28;20120;-57
2023/06/12 04:02:36;;;;;;;8.45;6.03;;;17.20;99.90;;;;;;5053652;28;20037;-57
2023/06/12 04:05:03;;;;;;;7.43;5.90;;;17.10;99.90;;;;;;5050277;28;20029;-57
2023/06/12 04:07:28;;;;;;;8.88;6.40;;;17.10;99.90;;;;;;5062115;28;20044;-57
2023/06/12 04:09:54;;;;;;;7.53;5.90;;;17.00;99.90;;;;;;5053920;28;20033;-57
2023/06/12 04:12:20;;;;;;;9.23;6.32;;;17.10;99.90;;;;;;5053262;28;20072;-57
2023/06/12 04:14:46;;;;;;;8.77;6.25;;;17.10;99.90;;;;;;5050699;28;20169;-57
2023/06/12 04:17:12;;;;;;;8.95;5.95;;;17.00;99.90;;;;;;5057013;28;20815;-57
2023/06/12 04:19:38;;;;;;;7.03;5.97;;;17.10;99.90;;;;;;5056410;28;20028;-56
2023/06/12 04:22:05;;;;;;;6.97;5.82;;;17.20;99.90;;;;;;5056246;28;20036;-57
2023/06/12 04:24:34;;;;;;;9.50;5.65;;;17.30;99.90;;;;;;5053844;28;20127;-57
2023/06/12 04:27:08;;;;;;;9.57;6.10;;;17.30;99.90;;;;;;5053971;28;20025;-56
2023/06/12 04:29:37;;;;;;;10.15;6.40;;;17.40;99.90;;;;;;5057072;28;20033;-56
2023/06/12 04:32:06;;;;;;;7.30;5.90;;;17.40;99.90;;;;;;5050798;28;20443;-57
2023/06/12 04:34:39;;;;;;;10.13;5.70;;;17.70;99.90;;;;;;5052219;28;20557;-56
2023/06/12 04:37:08;;;;;;;8.20;5.80;;;17.90;99.90;;;;;;5047462;28;20033;-56
2023/06/12 04:39:38;;;;;;;9.90;5.72;;;18.10;99.90;;;;;;5054384;28;20028;-57
2023/06/12 04:42:05;;;;;;;8.40;6.00;;;18.30;99.90;;;;;;5055435;28;20480;-57
2023/06/12 04:44:34;;;;;;;7.45;5.63;;;18.40;99.90;;;;;;5051461;28;20116;-57
2023/06/12 04:47:08;;;;;;;6.90;5.63;;;18.50;99.90;;;;;;5055640;28;20528;-57
2023/06/12 04:49:35;;;;;;;9.45;5.97;;;18.60;99.90;;;;;;5053056;28;20029;-59
2023/06/12 04:52:04;;;;;;;8.75;6.00;;;18.70;99.90;;;;;;5055382;28;20320;-57
2023/06/12 04:54:35;;;;;;;7.68;5.93;;;18.90;99.90;;;;;;5054772;28;20037;-57
2023/06/12 04:57:23;;;;;;;7.70;5.97;;;18.90;99.90;;;;;;5054901;28;20029;-57
2023/06/12 04:59:48;;;;;;;8.95;6.00;;;19.10;99.90;;;;;;5050526;28;20440;-57
2023/06/12 05:02:14;;;;;;;8.85;6.07;;;19.20;99.90;;;;;;5053320;28;20056;-57
2023/06/12 05:04:41;;;;;;;11.82;6.05;;;19.20;99.90;;;;;;5052523;28;20530;-58
2023/06/12 05:07:13;;;;;;;7.40;6.13;;;19.30;99.90;;;;;;5053088;28;20051;-57
2023/06/12 05:09:39;;;;;;;15.57;6.27;;;19.40;99.90;;;;;;5053162;28;20521;-57
2023/06/12 05:12:06;;;;;;;9.27;6.05;;;19.60;99.90;;;;;;5047505;28;20036;-57
2023/06/12 05:14:34;;;;;;;7.97;5.78;;;19.80;99.90;;;;;;5050484;28;20032;-57
2023/06/12 05:17:00;;;;;;;9.93;5.65;;;19.90;99.90;;;;;;5056535;28;20036;-57
2023/06/12 05:19:26;;;;;;;9.30;5.85;;;20.10;99.90;;;;;;5056297;28;20039;-57
2023/06/12 05:21:52;;;;;;;12.02;5.85;;;20.50;99.90;;;;;;5053699;28;20037;-57
2023/06/12 05:24:18;;;;;;;7.18;5.68;;;20.10;99.90;;;;;;5045393;28;20025;-57
2023/06/12 05:26:43;;;;;;;11.00;6.10;;;20.20;99.90;;;;;;5056506;28;20033;-57
2023/06/12 05:29:09;;;;;;;8.68;5.40;;;20.20;99.90;;;;;;5051419;28;20029;-57
2023/06/12 05:31:35;;;;;;;7.18;5.38;;;20.40;99.90;;;;;;5050891;28;20374;-57
2023/06/12 05:34:00;;;;;;;8.15;5.60;;;20.40;99.90;;;;;;5051029;28;20037;-57
2023/06/12 05:36:26;;;;;;;8.60;5.63;;;20.60;99.90;;;;;;5054382;28;20112;-57
2023/06/12 05:38:52;;;;;;;9.73;5.70;;;20.90;99.90;;;;;;5051426;28;20080;-57
2023/06/12 05:41:17;;;;;;;9.10;5.78;;;20.80;99.90;;;;;;5052054;28;20056;-58
2023/06/12 05:43:45;;;;;;;8.55;5.30;;;20.80;99.90;;;;;;5051652;28;20277;-57
2023/06/12 05:46:11;;;;;;;8.90;5.68;;;20.90;99.90;;;;;;5051239;28;20071;-57
2023/06/12 05:48:37;;;;;;;8.27;5.22;;;20.90;99.90;;;;;;5051121;28;20085;-58
2023/06/12 05:51:05;;;;;;;6.57;5.20;;;21.00;99.90;;;;;;5052254;28;20033;-58
2023/06/12 05:53:32;;;;;;;11.35;5.30;;;21.10;99.90;;;;;;5055824;28;20037;-57
2023/06/12 05:55:57;;;;;;;10.40;5.88;;;21.20;99.90;;;;;;5053376;28;20040;-57
2023/06/12 05:58:23;;;;;;;8.80;5.90;;;21.20;99.90;;;;;;5051137;28;20033;-57
2023/06/12 06:00:49;;;;;;;10.02;5.15;;;21.40;99.90;;;;;;5057904;28;20036;-57
2023/06/12 06:03:16;;;;;;;12.98;5.97;;;21.60;99.90;;;;;;5054962;28;20127;-57
2023/06/12 06:05:42;;;;;;;10.90;5.90;;;21.80;99.90;;;;;;5056647;28;20417;-57
2023/06/12 06:08:07;;;;;;;13.60;6.40;;;21.90;99.90;;;;;;5061453;28;20029;-57
2023/06/12 06:10:33;;;;;;;10.80;6.00;;;21.70;99.90;;;;;;5057552;28;20111;-57
2023/06/12 06:12:58;;;;;;;10.65;5.72;;;21.90;99.90;;;;;;5052759;28;20412;-57
2023/06/12 06:15:24;;;;;;;7.88;5.93;;;22.60;99.90;;;;;;5053902;28;20089;-57
2023/06/12 06:17:50;;;;;;;10.98;6.00;;;22.10;99.90;;;;;;5055238;28;20084;-57
2023/06/12 06:20:17;;;;;;;10.90;6.22;;;22.20;99.90;;;;;;5056173;28;20041;-57
2023/06/12 06:22:43;;;;;;;10.48;5.65;;;22.50;99.90;;;;;;5051122;28;20059;-56
2023/06/12 06:25:09;;;;;;;7.47;5.43;;;22.60;99.90;;;;;;5055271;28;20511;-57
2023/06/12 06:27:35;;;;;;;8.50;5.50;;;22.50;99.90;;;;;;5054724;28;20240;-57
2023/06/12 06:30:02;;;;;;;11.57;5.50;;;22.80;99.90;;;;;;5050941;28;20037;-57
2023/06/12 06:32:27;;;;;;;8.55;5.40;;;22.80;99.90;;;;;;5053560;28;20705;-57
2023/06/12 06:34:54;;;;;;;12.07;5.95;;;23.00;99.90;;;;;;5055333;28;20040;-57
2023/06/12 06:37:20;;;;;;;9.25;5.20;;;23.10;99.90;;;;;;5057943;28;20480;-57
2023/06/12 06:39:46;;;;;;;9.23;5.60;;;23.20;99.90;;;;;;5053915;28;20456;-57
2023/06/12 06:42:12;;;;;;;6.50;5.10;;;23.30;99.90;;;;;;5058871;28;20036;-57
2023/06/12 06:44:38;;;;;;;10.48;5.25;;;23.50;99.90;;;;;;5054816;28;20024;-58
2023/06/12 06:47:04;;;;;;;7.75;5.30;;;23.50;99.90;;;;;;5054636;28;20028;-57
2023/06/12 06:49:30;;;;;;;6.43;4.75;;;23.50;99.90;;;;;;5057705;28;20033;-57
2023/06/12 06:51:56;;;;;;;7.93;5.13;;;23.60;99.90;;;;;;5055412;28;20036;-57
2023/06/12 06:54:22;;;;;;;7.93;5.13;;;23.80;99.90;;;;;;5059412;28;20056;-57
2023/06/12 06:56:48;;;;;;;8.52;5.25;;;23.90;99.90;;;;;;5051925;28;20519;-57
2023/06/12 06:59:15;;;;;;;7.43;5.57;;;23.90;99.90;;;;;;5051764;28;20412;-60
2023/06/12 07:01:41;;;;;;;9.43;5.57;;;23.90;99.90;;;;;;5054112;28;20037;-58
2023/06/12 07:04:06;;;;;;;7.40;5.00;;;24.00;99.90;;;;;;5051670;28;20443;-57
2023/06/12 07:06:33;;;;;;;7.68;5.30;;;24.00;99.90;;;;;;5064993;28;20036;-58
2023/06/12 07:09:00;;;;;;;11.15;5.18;;;24.00;99.90;;;;;;5062885;28;20028;-57
2023/06/12 07:11:26;;;;;;;7.13;5.10;;;24.10;99.90;;;;;;5060220;28;20032;-58
2023/06/12 07:13:52;;;;;;;7.38;5.40;;;24.10;99.90;;;;;;5050880;28;20099;-58
2023/06/12 07:16:18;;;;;;;7.50;4.75;;;24.20;99.90;;;;;;5056222;28;20040;-58
2023/06/12 07:18:44;;;;;;;7.97;4.95;;;24.20;99.90;;;;;;5057117;28;20045;-58
2023/06/12 07:21:09;;;;;;;6.90;5.25;;;24.30;99.90;;;;;;5059207;28;20511;-57
2023/06/12 07:23:35;;;;;;;10.77;5.03;;;24.40;99.90;;;;;;5063268;28;21452;-58
2023/06/12 07:26:01;;;;;;;8.68;5.25;;;24.50;99.90;;;;;;5055880;28;20869;-58
2023/06/12 07:28:26;;;;;;;6.00;4.90;;;24.50;99.90;;;;;;5064286;28;20404;-58
2023/06/12 07:30:52;;;;;;;8.05;5.00;;;24.60;99.90;;;;;;5059888;28;20143;-58
2023/06/12 07:33:17;;;;;;;12.68;5.22;;;24.80;99.90;;;;;;5060482;28;20032;-57
2023/06/12 07:35:43;;;;;;;51.40;39.67;;;24.70;99.90;;;;;;5057537;28;20060;-60
2023/06/12 07:38:09;;;;;;;7.70;5.40;;;24.70;99.90;;;;;;5061103;28;20037;-61
2023/06/12 07:40:35;;;;;;;6.63;5.22;;;24.70;99.90;;;;;;5049962;28;20040;-61
2023/06/12 07:43:01;;;;;;;6.72;4.88;;;24.80;99.90;;;;;;5055516;28;20117;-61
2023/06/12 07:45:26;;;;;;;5.78;5.00;;;24.80;99.90;;;;;;5054402;28;20036;-60
2023/06/12 07:47:54;;;;;;;6.07;4.95;;;25.00;99.90;;;;;;5058542;28;20396;-61
2023/06/12 07:50:20;;;;;;;7.88;5.28;;;25.10;99.90;;;;;;5058246;28;20581;-60
2023/06/12 07:52:46;;;;;;;6.95;5.38;;;25.20;99.90;;;;;;5040238;28;20036;-61
2023/06/12 07:55:11;;;;;;;6.93;4.95;;;25.20;99.70;;;;;;5048611;28;20048;-60
2023/06/12 07:57:37;;;;;;;7.78;4.95;;;25.30;99.90;;;;;;5059647;28;20404;-61
2023/06/12 08:00:07;;;;;;;6.13;5.07;;;25.40;99.90;;;;;;5054816;28;20071;-61
2023/06/12 08:02:33;;;;;;;6.93;5.53;;;25.40;99.70;;;;;;5049712;28;20493;-61
2023/06/12 08:04:59;;;;;;;7.40;5.00;;;25.50;99.90;;;;;;5048113;28;20056;-60
2023/06/12 08:07:28;;;;;;;7.65;5.28;;;25.60;97.70;;;;;;5051133;28;20362;-61
2023/06/12 08:09:53;;;;;;;7.60;5.07;;;25.60;95.90;;;;;;5045897;28;20063;-61
2023/06/12 08:12:19;;;;;;;6.78;5.10;;;25.70;96.50;;;;;;5053308;28;20036;-60
2023/06/12 08:14:47;;;;;;;10.13;5.47;;;25.70;98.90;;;;;;5058145;28;20127;-61
2023/06/12 08:17:13;;;;;;;7.10;5.00;;;25.60;96.90;;;;;;5052074;28;20033;-60
2023/06/12 08:19:41;;;;;;;8.55;4.85;;;25.60;97.20;;;;;;5061399;28;20066;-61
2023/06/12 08:22:09;;;;;;;8.43;5.38;;;25.50;95.60;;;;;;5051095;28;20037;-61
2023/06/12 08:24:35;;;;;;;7.45;5.28;;;25.70;97.60;;;;;;5057959;28;20029;-60
2023/06/12 08:27:02;;;;;;;7.57;5.13;;;25.70;99.90;;;;;;5059814;28;20029;-61
2023/06/12 08:29:28;;;;;;;8.45;5.10;;;25.70;98.30;;;;;;5056616;28;20044;-61
2023/06/12 08:31:57;;;;;;;6.35;4.65;;;25.70;96.00;;;;;;5054948;28;20068;-61
2023/06/12 08:34:24;;;;;;;9.13;5.53;;;25.60;97.70;;;;;;5053132;28;20041;-61
2023/06/12 08:36:51;;;;;;;6.32;5.05;;;25.80;96.50;;;;;;5053188;28;20025;-61
2023/06/12 08:39:16;;;;;;;7.80;5.15;;;25.90;95.50;;;;;;5056929;28;20385;-61
2023/06/12 08:41:56;;;;;;;8.45;5.20;;;26.00;94.20;;;;;;5062080;28;20055;-61
2023/06/12 08:44:23;;;;;;;9.20;5.57;;;26.10;92.90;;;;;;5052177;28;20429;-61
2023/06/12 08:46:54;;;;;;;9.77;5.47;;;26.10;92.70;;;;;;5049701;28;20036;-61
2023/06/12 08:49:20;;;;;;;6.93;5.30;;;26.10;95.10;;;;;;5054251;28;20135;-61
2023/06/12 08:51:49;;;;;;;7.22;4.78;;;26.20;93.20;;;;;;5058178;28;20112;-61
2023/06/12 08:54:15;;;;;;;9.18;5.28;;;26.20;92.40;;;;;;5052551;28;20037;-61
2023/06/12 08:56:42;;;;;;;6.93;4.88;;;26.30;94.10;;;;;;5054489;28;20083;-61
2023/06/12 08:59:09;;;;;;;7.18;5.38;;;26.20;95.20;;;;;;5051807;28;20413;-61
2023/06/12 09:01:37;;;;;;;8.95;5.70;;;26.40;94.10;;;;;;5051864;28;20037;-61
2023/06/12 09:04:07;;;;;;;9.07;5.50;;;26.40;91.80;;;;;;5056470;28;20120;-61
2023/06/12 09:06:37;;;;;;;8.45;5.30;;;26.50;91.80;;;;;;5051903;28;20040;-61
2023/06/12 09:09:04;;;;;;;8.55;5.15;;;26.70;91.20;;;;;;5054873;28;20090;-61
2023/06/12 09:11:29;;;;;;;6.90;5.10;;;26.70;91.70;;;;;;5057375;28;20031;-61
2023/06/12 09:14:01;;;;;;;7.65;5.10;;;26.80;92.10;;;;;;5051540;28;20040;-61
2023/06/12 09:16:27;;;;;;;5.55;4.90;;;26.80;87.90;;;;;;5053196;28;20500;-61
2023/06/12 09:18:54;;;;;;;9.95;5.22;;;26.80;90.40;;;;;;5054045;28;20616;-61
2023/06/12 09:21:24;;;;;;;7.53;5.15;;;26.80;90.50;;;;;;5048040;28;20037;-61
2023/06/12 09:23:51;;;;;;;6.10;5.50;;;26.90;88.20;;;;;;5050633;28;20045;-61
2023/06/12 09:26:21;;;;;;;8.55;5.47;;;26.90;86.60;;;;;;5054579;28;20108;-61
2023/06/12 09:28:53;;;;;;;7.03;5.03;;;26.90;88.30;;;;;;5052442;28;20083;-62
2023/06/12 09:31:19;;;;;;;8.05;6.72;;;27.00;86.30;;;;;;5048398;28;20036;-61
2023/06/12 09:33:45;;;;;;;20.13;16.38;;;27.10;82.30;;;;;;5056963;28;20032;-58
2023/06/12 09:49:38;;;;;;;6.30;4.85;;;27.40;83.70;;;;;;5068570;28;20055;-59
2023/06/12 09:52:05;;;;;;;7.90;5.32;;;27.40;82.10;;;;;;5056192;28;20111;-58
2023/06/12 09:54:32;;;;;;;11.68;5.82;;;27.40;85.80;;;;;;5053801;28;20071;-58
2023/06/12 09:57:00;;;;;;;7.55;4.88;;;27.60;87.30;;;;;;5057866;28;20029;-59
2023/06/12 09:59:28;;;;;;;9.80;5.13;;;27.70;91.50;;;;;;5056601;28;20083;-58
2023/06/12 10:02:03;;;;;;;7.38;4.72;;;27.70;81.40;;;;;;5055320;28;20032;-58
2023/06/12 10:04:41;;;;;;;6.85;4.82;;;27.70;80.50;;;;;;5051606;28;20040;-58
2023/06/12 10:07:15;;;;;;;8.38;5.15;;;27.70;76.40;;;;;;5056485;28;20029;-59
2023/06/12 10:09:42;;;;;;;6.93;5.32;;;27.90;74.00;;;;;;5061095;28;20048;-59
2023/06/12 10:12:08;;;;;;;7.75;5.07;;;27.90;74.10;;;;;;5057119;28;20124;-58
2023/06/12 10:14:35;;;;;;;9.32;5.47;;;27.90;76.10;;;;;;5060235;28;20195;-59
2023/06/12 10:17:01;;;;;;;5.57;4.95;;;27.90;78.70;;;;;;5062963;28;20035;-58
2023/06/12 10:19:28;;;;;;;6.55;4.88;;;27.90;76.30;;;;;;5056800;28;20040;-58
2023/06/12 10:21:54;;;;;;;9.30;5.40;;;28.50;75.60;;;;;;5059425;28;20036;-58
2023/06/12 10:24:24;;;;;;;6.93;4.70;;;27.80;73.10;;;;;;5060438;28;20045;-59
2023/06/12 10:26:52;;;;;;;7.13;4.65;;;27.90;70.90;;;;;;5056849;28;20087;-58
2023/06/12 10:29:25;;;;;;;10.30;4.65;;;;;;;;;;5046151;28;20037;-58
2023/06/12 10:31:51;;;;;;;7.45;4.82;;;28.20;73.00;;;;;;5056905;28;20461;-59
2023/06/12 10:34:17;;;;;;;7.80;4.57;;;28.30;79.80;;;;;;5058252;28;20047;-58
2023/06/12 10:36:44;;;;;;;6.05;4.78;;;28.20;71.70;;;;;;5052878;28;20067;-58
2023/06/12 10:39:29;;;;;;;7.88;5.05;;;28.20;68.10;;;;;;5056177;28;20083;-58
2023/06/12 10:41:57;;;;;;;8.05;4.50;;;28.20;71.30;;;;;;5058102;28;20116;-58
2023/06/12 10:44:45;;;;;;;5.22;4.72;;;28.20;73.10;;;;;;5061300;28;20041;-58
2023/06/12 10:47:23;;;;;;;5.47;4.40;;;28.20;68.90;;;;;;5051083;28;20120;-58
2023/06/12 10:50:02;;;;;;;7.72;4.75;;;28.10;68.40;;;;;;5066347;28;20521;-58
2023/06/12 10:52:28;;;;;;;7.97;5.30;;;28.20;69.70;;;;;;5056234;28;20047;-58
2023/06/12 10:55:13;;;;;;;8.07;4.43;;;28.30;66.60;;;;;;5052965;28;20589;-59
2023/06/12 10:57:39;;;;;;;9.73;5.38;;;28.00;68.20;;;;;;5056904;28;20546;-58
2023/06/12 11:00:11;;;;;;;4.90;4.35;;;28.10;64.80;;;;;;5055995;28;20033;-59
2023/06/12 11:02:37;;;;;;;8.30;4.43;;;28.20;67.70;;;;;;5060682;28;20496;-58
2023/06/12 11:05:03;;;;;;;5.47;4.68;;;28.30;68.00;;;;;;5061369;28;20033;-59
2023/06/12 11:07:31;;;;;;;6.28;4.50;;;28.50;69.60;;;;;;5061679;28;20093;-58
2023/06/12 11:09:57;;;;;;;4.65;4.20;;;28.50;67.40;;;;;;5054593;28;20621;-59
2023/06/12 11:12:23;;;;;;;14.45;5.88;;;28.50;65.70;;;;;;5057990;28;20173;-58
2023/06/12 11:14:48;;;;;;;6.78;4.70;;;28.50;69.30;;;;;;5050562;28;20033;-58
2023/06/12 11:17:14;;;;;;;4.90;4.45;;;28.60;64.80;;;;;;5049047;28;20033;-58
2023/06/12 11:19:40;;;;;;;7.45;4.82;;;;;;;;;;5051613;28;20040;-59
2023/06/12 11:22:06;;;;;;;8.38;4.80;;;28.80;60.40;;;;;;5056111;28;20159;-58
2023/06/12 11:24:31;;;;;;;10.40;6.35;;;28.80;63.30;;;;;;5059937;28;20052;-59
2023/06/12 11:27:00;;;;;;;6.40;4.65;;;28.80;62.90;;;;;;5053332;28;20033;-59
2023/06/12 11:29:29;;;;;;;5.90;5.30;;;28.70;63.10;;;;;;5049075;28;20477;-59
2023/06/12 11:32:02;;;;;;;7.32;4.82;;;28.80;63.60;;;;;;5057588;28;20111;-59
2023/06/12 11:34:37;;;;;;;5.20;4.70;;;28.80;64.60;;;;;;5051610;28;20129;-61
2023/06/12 11:37:14;;;;;;;5.80;5.20;;;28.70;65.90;;;;;;5051024;28;20033;-59
2023/06/12 11:39:40;;;;;;;8.02;5.18;;;28.60;64.70;;;;;;5054647;28;20407;-59
2023/06/12 11:42:08;;;;;;;6.72;4.88;;;28.40;66.80;;;;;;5058656;28;20025;-59
2023/06/12 11:44:33;;;;;;;5.75;5.18;;;28.40;64.90;;;;;;5055230;28;20047;-59
2023/06/12 11:47:00;;;;;;;8.82;4.70;;;28.50;61.90;;;;;;5052646;28;20567;-59
2023/06/12 11:49:25;;;;;;;5.18;4.68;;;28.70;68.00;;;;;;5055210;28;20033;-59
2023/06/12 11:51:52;;;;;;;6.20;4.70;;;28.70;68.50;;;;;;5056030;28;20040;-59
2023/06/12 11:54:17;;;;;;;10.55;5.13;;;28.80;65.10;;;;;;5051859;28;20079;-59
2023/06/12 11:56:43;;;;;;;5.07;4.57;;;28.90;61.40;;;;;;5052176;28;20037;-59
2023/06/12 11:59:10;;;;;;;6.82;4.75;;;28.90;60.80;;;;;;5052811;28;20543;-59
2023/06/12 12:01:41;;;;;;;5.95;4.97;;;28.90;62.30;;;;;;5055914;28;20625;-59
2023/06/12 12:04:07;;;;;;;7.15;4.65;;;28.90;63.20;;;;;;5056458;28;20041;-60
2023/06/12 12:06:49;;;;;;;7.88;4.78;;;28.60;60.60;;;;;;5060365;28;20032;-59
2023/06/12 12:09:15;;;;;;;7.78;4.90;;;28.70;59.80;;;;;;5052008;28;20410;-58
2023/06/12 12:11:40;;;;;;;6.40;5.20;;;28.70;59.50;;;;;;5055408;28;20126;-60
2023/06/12 12:14:07;;;;;;;8.30;5.30;;;28.60;58.70;;;;;;5052498;28;20124;-59
2023/06/12 12:16:40;;;;;;;6.68;5.07;;;28.60;58.80;;;;;;5054485;28;20037;-59
2023/06/12 12:19:29;;;;;;;6.30;4.63;;;28.70;57.30;;;;;;5052282;28;20052;-59
2023/06/12 12:21:56;;;;;;;7.28;5.22;;;28.70;57.70;;;;;;5047143;28;20043;-59
2023/06/12 12:24:22;;;;;;;7.07;4.70;;;28.80;58.00;;;;;;5051071;28;20048;-59
2023/06/12 12:26:52;;;;;;;6.63;4.80;;;28.70;56.10;;;;;;5050607;28;20097;-59
2023/06/12 12:29:18;;;;;;;7.18;5.07;;;28.80;58.50;;;;;;5054386;28;20097;-59
2023/06/12 12:31:44;;;;;;;6.07;5.30;;;28.70;57.20;;;;;;5057830;28;20040;-59
2023/06/12 12:34:09;;;;;;;7.68;5.00;;;28.60;58.50;;;;;;5049350;28;20037;-59
2023/06/12 12:36:39;;;;;;;5.82;4.88;;;28.80;62.00;;;;;;5053560;28;20761;-59
2023/06/12 12:39:05;;;;;;;8.55;5.20;;;28.60;63.00;;;;;;5055419;28;20047;-59
2023/06/12 12:41:31;;;;;;;6.45;4.78;;;29.00;62.60;;;;;;5056286;28;20037;-59
2023/06/12 12:43:56;;;;;;;5.50;4.68;;;28.80;55.00;;;;;;5050329;28;20072;-59
2023/06/12 12:46:25;;;;;;;6.18;4.80;;;28.80;51.10;;;;;;5054886;28;20601;-59
2023/06/12 12:48:51;;;;;;;5.20;4.65;;;28.50;51.40;;;;;;5052859;28;20506;-59
2023/06/12 12:51:17;;;;;;;5.00;4.50;;;28.60;53.70;;;;;;5051098;28;20110;-59
2023/06/12 12:53:43;;;;;;;5.60;5.00;;;28.60;56.30;;;;;;5049074;28;20047;-59
2023/06/12 12:56:09;;;;;;;6.20;4.65;;;28.80;56.70;;;;;;5050332;28;20636;-59
2023/06/12 12:58:35;;;;;;;7.28;4.78;;;28.90;53.80;;;;;;5050167;28;20043;-59
2023/06/12 13:01:01;;;;;;;9.15;5.30;;;28.60;60.30;;;;;;5057624;28;20597;-59
2023/06/12 13:03:34;;;;;;;7.40;5.00;;;28.90;56.00;;;;;;5052389;28;20040;-59